createdAt,value
2023-04-19T00:00:52.274Z,99800.91
2023-04-19T00:03:24.825Z,99802.56
2023-04-19T00:05:55.028Z,99807.13
2023-04-19T00:08:24.447Z,99801.47
2023-04-19T00:10:53.480Z,99798.56
2023-04-19T00:13:22.019Z,99802.09
2023-04-19T00:15:51.233Z,99802.09
2023-04-19T00:18:20.395Z,99800.22
2023-04-19T00:20:51.268Z,99800.00
2023-04-19T00:23:20.611Z,99798.34
2023-04-19T00:25:49.969Z,99803.28
2023-04-19T00:28:19.591Z,99798.09
2023-04-19T00:30:50.005Z,99803.28
2023-04-19T00:33:21.840Z,99799.53
2023-04-19T00:35:53.698Z,99793.09
2023-04-19T00:38:22.933Z,99789.56
2023-04-19T00:40:52.327Z,99798.50
2023-04-19T00:43:24.024Z,99805.31
2023-04-19T00:45:53.209Z,99797.44
2023-04-19T00:48:22.508Z,99799.06
2023-04-19T00:50:56.720Z,99795.34
2023-04-19T00:53:26.151Z,99799.66
2023-04-19T00:55:55.420Z,99789.94
2023-04-19T00:58:24.497Z,99784.28
2023-04-19T01:00:53.725Z,99789.47
2023-04-19T01:03:22.416Z,99786.78
2023-04-19T01:05:56.701Z,99773.28
2023-04-19T01:08:25.751Z,99778.69
2023-04-19T01:10:54.853Z,99773.28
2023-04-19T01:13:24.416Z,99773.28
2023-04-19T01:15:52.819Z,99779.31
2023-04-19T01:18:24.571Z,99769.56
2023-04-19T01:20:54.031Z,99761.25
2023-04-19T01:23:23.474Z,99764.75
2023-04-19T01:25:53.037Z,99755.59
2023-04-19T01:28:22.297Z,99749.16
2023-04-19T01:30:53.930Z,99747.50
2023-04-19T01:33:23.160Z,99744.56
2023-04-19T01:35:52.164Z,99749.97
2023-04-19T01:38:23.362Z,99743.50
2023-04-19T01:40:52.541Z,99747.88
2023-04-19T01:43:21.838Z,99736.25
2023-04-19T01:45:51.367Z,99743.50
2023-04-19T01:48:22.497Z,99739.53
2023-04-19T01:50:51.915Z,99735.19
2023-04-19T01:53:20.532Z,99732.50
2023-04-19T01:55:49.925Z,99734.13
2023-04-19T01:58:23.355Z,99731.44
2023-04-19T02:00:52.838Z,99733.09
2023-04-19T02:03:22.231Z,99728.72
2023-04-19T02:05:51.708Z,99726.03
2023-04-19T02:08:21.962Z,99726.88
2023-04-19T02:10:52.939Z,99724.41
2023-04-19T02:13:23.581Z,99731.44
2023-04-19T02:15:54.152Z,99733.69
2023-04-19T02:18:26.427Z,99726.63
2023-04-19T02:20:55.450Z,99721.22
2023-04-19T02:23:27.197Z,99715.84
2023-04-19T02:25:57.784Z,99715.84
2023-04-19T02:28:27.036Z,99725.59
2023-04-19T02:30:56.357Z,99719.94
2023-04-19T02:33:27.044Z,99716.44
2023-04-19T02:35:55.074Z,99718.91
2023-04-19T02:38:25.175Z,99710.81
2023-04-19T02:40:56.762Z,99708.34
2023-04-19T02:43:27.305Z,99713.25
2023-04-19T02:45:56.707Z,99710.56
2023-04-19T02:48:26.206Z,99698.69
2023-04-19T02:50:56.593Z,99694.38
2023-04-19T02:53:24.692Z,99696.84
2023-04-19T02:55:56.483Z,99687.91
2023-04-19T02:58:27.040Z,99685.19
2023-04-19T03:00:56.359Z,99688.50
2023-04-19T03:03:24.923Z,99689.31
2023-04-19T03:05:53.082Z,99686.88
2023-04-19T03:08:21.131Z,99688.50
2023-04-19T03:10:49.160Z,99684.16
2023-04-19T03:13:17.082Z,99678.75
2023-04-19T03:15:46.523Z,99678.50
2023-04-19T03:18:14.500Z,99683.09
2023-04-19T03:20:42.549Z,99679.38
2023-04-19T03:23:10.917Z,99678.28
2023-04-19T03:25:38.861Z,99676.66
2023-04-19T03:28:06.874Z,99683.69
2023-04-19T03:30:34.885Z,99672.91
2023-04-19T03:33:04.322Z,99673.72
2023-04-19T03:35:32.619Z,99685.31
2023-04-19T03:38:00.636Z,99679.94
2023-04-19T03:40:28.604Z,99678.06
2023-04-19T03:42:56.494Z,99676.19
2023-04-19T03:45:24.496Z,99677.81
2023-04-19T03:47:52.481Z,99676.19
2023-04-19T03:50:22.031Z,99679.72
2023-04-19T03:52:50.009Z,99683.22
2023-04-19T03:55:18.572Z,99683.22
2023-04-19T03:57:46.562Z,99678.63
2023-04-19T04:00:15.511Z,99681.59
2023-04-19T04:02:43.552Z,99675.13
2023-04-19T04:05:11.774Z,99684.88
2023-04-19T04:07:59.488Z,99684.88
2023-04-19T04:10:27.430Z,99674.31
2023-04-19T04:12:55.401Z,99682.41
2023-04-19T04:15:23.323Z,99684.28
2023-04-19T04:17:51.398Z,99683.22
2023-04-19T04:20:19.389Z,99681.59
2023-04-19T04:23:03.855Z,99687.00
2023-04-19T04:25:33.216Z,99688.63
2023-04-19T04:28:01.158Z,99687.59
2023-04-19T04:30:29.230Z,99684.03
2023-04-19T04:32:59.229Z,99675.72
2023-04-19T04:35:29.064Z,99674.91
2023-04-19T04:37:56.971Z,99676.78
2023-04-19T04:40:26.423Z,99674.66
2023-04-19T04:42:54.333Z,99678.19
2023-04-19T04:45:22.587Z,99677.34
2023-04-19T04:47:51.709Z,99674.66
2023-04-19T04:50:19.852Z,99679.84
2023-04-19T04:52:47.852Z,99683.34
2023-04-19T04:55:15.827Z,99674.44
2023-04-19T04:57:45.251Z,99685.22
2023-04-19T05:00:14.191Z,99687.72
2023-04-19T05:02:42.206Z,99691.44
2023-04-19T05:05:11.369Z,99698.50
2023-04-19T05:07:39.432Z,99690.41
2023-04-19T05:10:08.798Z,99695.22
2023-04-19T05:12:37.646Z,99686.88
2023-04-19T05:15:08.548Z,99691.22
2023-04-19T05:17:36.538Z,99686.66
2023-04-19T05:20:05.078Z,99692.03
2023-04-19T05:22:33.084Z,99690.16
2023-04-19T05:25:02.179Z,99690.16
2023-04-19T05:27:30.263Z,99700.75
2023-04-19T05:29:58.275Z,99703.44
2023-04-19T05:32:28.170Z,99706.72
2023-04-19T05:34:56.143Z,99700.28
2023-04-19T05:37:25.133Z,99699.19
2023-04-19T05:39:53.132Z,99700.88
2023-04-19T05:42:21.143Z,99702.50
2023-04-19T05:44:49.162Z,99703.31
2023-04-19T05:47:17.639Z,99704.13
2023-04-19T05:49:46.962Z,99711.19
2023-04-19T05:52:14.945Z,99705.78
2023-04-19T05:54:44.036Z,99709.53
2023-04-19T05:57:12.081Z,99704.38
2023-04-19T05:59:39.999Z,99709.53
2023-04-19T06:02:08.045Z,99705.78
2023-04-19T06:04:39.202Z,99708.50
2023-04-19T06:07:21.697Z,99708.50
2023-04-19T06:09:56.782Z,99700.41
2023-04-19T06:12:24.721Z,99706.84
2023-04-19T06:14:52.966Z,99714.50
2023-04-19T06:17:24.583Z,99711.19
2023-04-19T06:19:52.654Z,99711.78
2023-04-19T06:22:22.122Z,99708.50
2023-04-19T06:24:50.157Z,99713.44
2023-04-19T06:27:18.133Z,99712.34
2023-04-19T06:29:46.165Z,99711.31
2023-04-19T06:32:17.498Z,99723.75
2023-04-19T06:34:45.591Z,99720.00
2023-04-19T06:37:13.674Z,99725.16
2023-04-19T06:39:43.106Z,99721.41
2023-04-19T06:42:12.502Z,99716.84
2023-04-19T06:44:40.574Z,99720.38
2023-04-19T06:47:08.507Z,99728.22
2023-04-19T06:49:36.518Z,99725.50
2023-04-19T06:52:04.572Z,99729.28
2023-04-19T06:54:32.550Z,99726.00
2023-04-19T06:57:02.438Z,99732.47
2023-04-19T06:59:32.552Z,99746.44
2023-04-19T07:02:00.573Z,99733.97
2023-04-19T07:04:28.972Z,99738.81
2023-04-19T07:06:57.001Z,99735.50
2023-04-19T07:09:25.050Z,99732.81
2023-04-19T07:11:53.129Z,99734.91
2023-04-19T07:14:23.764Z,99738.22
2023-04-19T07:16:53.722Z,99732.81
2023-04-19T07:19:22.856Z,99730.91
2023-04-19T07:21:51.184Z,99736.91
2023-04-19T07:24:19.182Z,99742.78
2023-04-19T07:26:47.176Z,99741.94
2023-04-19T07:29:15.388Z,99732.00
2023-04-19T07:31:44.830Z,99736.53
2023-04-19T07:34:12.835Z,99746.53
2023-04-19T07:36:40.853Z,99728.69
2023-04-19T07:39:09.186Z,99737.81
2023-04-19T07:41:37.157Z,99742.41
2023-04-19T07:44:05.297Z,99744.28
2023-04-19T07:46:33.297Z,99740.78
2023-04-19T07:49:02.695Z,99741.00
2023-04-19T07:51:30.667Z,99739.13
2023-04-19T07:53:58.640Z,99742.66
2023-04-19T07:56:27.514Z,99730.56
2023-04-19T07:59:06.872Z,99722.47
2023-04-19T08:01:37.124Z,99730.31
2023-04-19T08:04:06.848Z,99723.03
2023-04-19T08:06:35.023Z,99724.91
2023-04-19T08:09:03.153Z,99741.13
2023-04-19T08:11:31.161Z,99746.78
2023-04-19T08:14:26.860Z,99743.22
2023-04-19T08:19:19.291Z,99744.09
2023-04-19T08:21:47.251Z,99749.47
2023-04-19T08:24:15.593Z,99752.19
2023-04-19T08:26:43.772Z,99746.78
2023-04-19T08:29:11.739Z,99747.59
2023-04-19T08:31:40.020Z,99749.47
2023-04-19T08:34:08.068Z,99742.19
2023-04-19T08:36:43.410Z,99740.31
2023-04-19T08:39:29.178Z,99738.44
2023-04-19T08:42:06.851Z,99740.91
2023-04-19T08:44:45.322Z,99733.41
2023-04-19T08:47:29.617Z,99729.41
2023-04-19T08:50:11.151Z,99728.09
2023-04-19T08:52:56.113Z,99727.28
2023-04-19T08:55:26.965Z,99727.88
2023-04-19T08:57:54.950Z,99727.88
2023-04-19T09:00:23.302Z,99733.06
2023-04-19T09:02:52.388Z,99732.22
2023-04-19T09:05:21.149Z,99716.00
2023-04-19T09:07:50.665Z,99725.50
2023-04-19T09:10:19.293Z,99730.91
2023-04-19T09:13:01.742Z,99728.22
2023-04-19T09:15:37.376Z,99724.47
2023-04-19T09:18:05.926Z,99721.78
2023-04-19T09:20:37.502Z,99725.50
2023-04-19T09:23:07.277Z,99725.28
2023-04-19T09:25:55.162Z,99728.00
2023-04-19T09:28:23.820Z,99728.81
2023-04-19T09:33:33.272Z,99712.13
2023-04-19T09:36:01.533Z,99710.50
2023-04-19T09:38:30.932Z,99712.72
2023-04-19T09:41:08.946Z,99728.72
2023-04-19T09:44:00.804Z,99719.53
2023-04-19T09:46:32.065Z,99731.16
2023-04-19T09:49:25.267Z,99730.13
2023-04-19T09:51:58.756Z,99720.59
2023-04-19T09:54:30.039Z,99724.13
2023-04-19T09:57:00.172Z,99724.94
2023-04-19T09:59:29.490Z,99718.72
2023-04-19T10:01:57.666Z,99720.59
2023-04-19T10:04:38.350Z,99714.59
2023-04-19T10:09:52.907Z,99713.78
2023-04-19T10:14:58.974Z,99721.53
2023-04-19T10:17:27.211Z,99718.81
2023-04-19T10:19:58.693Z,99708.88
2023-04-19T10:22:26.614Z,99708.88
2023-04-19T10:25:13.211Z,99718.59
2023-04-19T10:27:42.178Z,99714.00
2023-04-19T10:30:18.189Z,99708.38
2023-04-19T10:32:48.385Z,99704.03
2023-04-19T10:35:19.887Z,99704.88
2023-04-19T10:38:07.958Z,99701.31
2023-04-19T10:41:00.797Z,99698.88
2023-04-19T10:43:29.705Z,99697.47
2023-04-19T10:46:01.138Z,99702.06
2023-04-19T10:48:39.546Z,99698.50
2023-04-19T10:51:14.523Z,99699.78
2023-04-19T10:53:53.159Z,99695.25
2023-04-19T10:56:23.738Z,99696.28
2023-04-19T10:59:21.232Z,99692.75
2023-04-19T11:01:51.117Z,99692.97
2023-04-19T11:04:19.929Z,99687.34
2023-04-19T11:07:04.135Z,99693.56
2023-04-19T11:09:34.519Z,99684.44
2023-04-19T11:12:04.891Z,99687.69
2023-04-19T11:14:34.135Z,99681.84
2023-04-19T11:17:02.610Z,99683.47
2023-04-19T11:19:30.650Z,99683.97
2023-04-19T11:21:59.757Z,99683.13
2023-04-19T11:24:27.750Z,99686.06
2023-04-19T11:26:56.957Z,99689.84
2023-04-19T11:29:28.946Z,99695.25
2023-04-19T11:31:57.123Z,99709.78
2023-04-19T11:34:25.373Z,99707.91
2023-04-19T11:36:53.890Z,99711.66
2023-04-19T11:39:22.373Z,99696.53
2023-04-19T11:41:50.314Z,99706.25
2023-04-19T11:44:20.400Z,99704.84
2023-04-19T11:47:04.146Z,99705.66
2023-04-19T11:49:32.713Z,99703.78
2023-04-19T11:52:02.495Z,99706.47
2023-04-19T11:54:31.976Z,99696.53
2023-04-19T11:57:04.604Z,99687.34
2023-04-19T11:59:33.345Z,99695.25
2023-04-19T12:02:09.738Z,99686.06
2023-04-19T12:04:38.008Z,99680.66
2023-04-19T12:07:06.872Z,99680.19
2023-04-19T12:09:43.930Z,99683.47
2023-04-19T12:12:11.907Z,99667.28
2023-04-19T12:14:39.905Z,99669.97
2023-04-19T12:17:10.600Z,99666.19
2023-04-19T12:19:39.348Z,99675.97
2023-04-19T12:22:10.957Z,99674.31
2023-04-19T12:24:39.338Z,99675.16
2023-04-19T12:27:07.367Z,99675.38
2023-04-19T12:29:35.766Z,99672.69
2023-04-19T12:32:03.808Z,99671.03
2023-04-19T12:34:33.222Z,99674.78
2023-04-19T12:37:01.227Z,99663.97
2023-04-19T12:39:29.398Z,99677.47
2023-04-19T12:41:57.454Z,99663.97
2023-04-19T12:44:25.382Z,99667.50
2023-04-19T12:46:57.251Z,99661.28
2023-04-19T12:49:25.564Z,99658.56
2023-04-19T12:51:57.247Z,99656.94
2023-04-19T12:54:25.604Z,99658.56
2023-04-19T12:56:54.066Z,99654.00
2023-04-19T12:59:22.198Z,99656.69
2023-04-19T13:01:50.219Z,99648.59
2023-04-19T13:04:18.828Z,99648.03
2023-04-19T13:06:47.132Z,99648.59
2023-04-19T13:09:16.620Z,99653.19
2023-04-19T13:11:44.527Z,99646.13
2023-04-19T13:14:12.493Z,99648.84
2023-04-19T13:16:40.402Z,99649.44
2023-04-19T13:19:08.374Z,99638.63
2023-04-19T13:21:36.346Z,99640.25
2023-04-19T13:24:04.310Z,99645.66
2023-04-19T13:26:35.614Z,99642.97
2023-04-19T13:29:04.949Z,99645.66
2023-04-19T13:31:34.126Z,99642.97
2023-04-19T13:34:03.213Z,99638.63
2023-04-19T13:36:32.247Z,99641.34
2023-04-19T13:39:00.216Z,99641.06
2023-04-19T13:41:29.734Z,99639.44
2023-04-19T13:43:59.137Z,99641.34
2023-04-19T13:46:27.127Z,99638.63
2023-04-19T13:48:56.259Z,99636.16
2023-04-19T13:51:24.169Z,99640.75
2023-04-19T13:53:52.091Z,99629.94
2023-04-19T13:56:21.127Z,99635.34
2023-04-19T13:58:50.570Z,99635.34
2023-04-19T14:01:24.440Z,99630.75
2023-04-19T14:03:54.010Z,99634.53
2023-04-19T14:06:23.765Z,99623.72
2023-04-19T14:08:53.284Z,99629.94
2023-04-19T14:11:23.969Z,99630.97
2023-04-19T14:13:54.106Z,99628.28
2023-04-19T14:16:25.533Z,99626.63
2023-04-19T14:18:55.110Z,99628.28
2023-04-19T14:21:24.344Z,99620.41
2023-04-19T14:23:53.907Z,99625.00
2023-04-19T14:26:23.081Z,99626.88
2023-04-19T14:28:51.039Z,99616.31
2023-04-19T14:31:22.947Z,99625.22
2023-04-19T14:33:52.288Z,99620.91
2023-04-19T14:36:21.634Z,99619.22
2023-04-19T14:38:49.631Z,99618.41
2023-04-19T14:41:18.931Z,99615.72
2023-04-19T14:43:48.250Z,99622.19
2023-04-19T14:46:17.400Z,99621.38
2023-04-19T14:48:46.885Z,99623.00
2023-04-19T14:51:17.648Z,99622.19
2023-04-19T14:53:45.596Z,99619.72
2023-04-19T14:56:15.056Z,99626.78
2023-04-19T14:58:44.473Z,99618.91
2023-04-19T15:01:13.027Z,99620.53
2023-04-19T15:03:42.783Z,99620.53
2023-04-19T15:06:11.896Z,99614.56
2023-04-19T15:08:43.141Z,99618.09
2023-04-19T15:11:14.939Z,99625.13
2023-04-19T15:13:44.402Z,99627.00
2023-04-19T15:16:13.904Z,99628.88
2023-04-19T15:18:43.109Z,99633.47
2023-04-19T15:21:12.535Z,99623.97
2023-04-19T15:23:45.320Z,99625.81
2023-04-19T15:26:24.381Z,99627.94
2023-04-19T15:28:53.864Z,99631.69
2023-04-19T15:31:26.179Z,99629.00
2023-04-19T15:33:55.390Z,99638.16
2023-04-19T15:36:24.695Z,99642.75
2023-04-19T15:38:55.347Z,99635.69
2023-04-19T15:41:24.601Z,99644.03
2023-04-19T15:43:53.975Z,99639.66
2023-04-19T15:46:25.823Z,99638.63
2023-04-19T15:48:53.780Z,99639.94
2023-04-19T15:51:22.828Z,99639.66
2023-04-19T15:53:50.777Z,99640.75
2023-04-19T15:56:21.744Z,99642.38
2023-04-19T15:58:50.937Z,99639.09
2023-04-19T16:01:19.975Z,99642.63
2023-04-19T16:03:49.385Z,99647.22
2023-04-19T16:06:18.743Z,99642.03
2023-04-19T16:08:50.590Z,99638.50
2023-04-19T16:11:21.402Z,99644.13
2023-04-19T16:13:50.679Z,99641.69
2023-04-19T16:16:19.998Z,99650.81
2023-04-19T16:18:48.216Z,99649.19
2023-04-19T16:21:18.253Z,99643.19
2023-04-19T16:23:47.209Z,99645.91
2023-04-19T16:26:16.763Z,99643.41
2023-04-19T16:28:48.080Z,99637.19
2023-04-19T16:31:17.752Z,99640.97
2023-04-19T16:33:47.048Z,99649.53
2023-04-19T16:36:16.713Z,99655.75
2023-04-19T16:38:46.891Z,99653.06
2023-04-19T16:41:16.315Z,99654.94
2023-04-19T16:43:45.850Z,99659.53
2023-04-19T16:46:16.511Z,99656.81
2023-04-19T16:48:45.593Z,99655.16
2023-04-19T16:51:14.855Z,99661.38
2023-04-19T16:53:43.550Z,99664.06
2023-04-19T16:56:12.910Z,99665.13
2023-04-19T16:58:42.255Z,99665.97
2023-04-19T17:01:10.410Z,99667.84
2023-04-19T17:03:40.966Z,99667.03
2023-04-19T17:06:10.169Z,99669.94
2023-04-19T17:08:39.145Z,99666.66
2023-04-19T17:11:08.450Z,99667.72
2023-04-19T17:13:40.380Z,99666.06
2023-04-19T17:16:08.943Z,99667.13
2023-04-19T17:18:38.015Z,99674.41
2023-04-19T17:21:08.575Z,99668.41
2023-04-19T17:23:41.582Z,99674.06
2023-04-19T17:26:09.649Z,99685.66
2023-04-19T17:28:39.050Z,99680.25
2023-04-19T17:31:08.455Z,99681.50
2023-04-19T17:33:38.918Z,99678.81
2023-04-19T17:36:10.224Z,99689.00
2023-04-19T17:38:39.907Z,99695.47
2023-04-19T17:41:15.980Z,99695.47
2023-04-19T17:43:45.673Z,99694.88
2023-04-19T17:46:14.997Z,99701.09
2023-04-19T17:48:44.416Z,99702.38
2023-04-19T17:51:16.005Z,99707.78
2023-04-19T17:53:45.084Z,99702.63
2023-04-19T17:56:13.395Z,99713.16
2023-04-19T17:58:42.778Z,99715.28
2023-04-19T18:01:11.596Z,99720.66
2023-04-19T18:03:40.775Z,99717.41
2023-04-19T18:06:10.081Z,99719.03
2023-04-19T18:08:40.896Z,99726.53
2023-04-19T18:11:11.080Z,99724.91
2023-04-19T18:13:40.231Z,99736.72
2023-04-19T18:16:10.048Z,99727.00
2023-04-19T18:18:39.247Z,99738.84
2023-04-19T18:21:09.449Z,99739.06
2023-04-19T18:23:40.256Z,99744.47
2023-04-19T18:26:09.386Z,99744.47
2023-04-19T18:28:38.457Z,99755.50
2023-04-19T18:31:06.445Z,99760.66
2023-04-19T18:33:36.503Z,99766.03
2023-04-19T19:07:41.915Z,99779.63
2023-04-19T19:10:19.367Z,99782.09
2023-04-19T19:12:50.257Z,99786.22
2023-04-19T19:15:18.309Z,99791.41
2023-04-19T19:17:49.778Z,99793.84
2023-04-19T19:20:18.792Z,99797.16
2023-04-19T19:22:48.413Z,99790.47
2023-04-19T19:25:16.659Z,99785.09
2023-04-19T19:28:02.880Z,99794.59
2023-04-19T19:30:34.801Z,99794.13
2023-04-19T19:33:03.071Z,99794.94
2023-04-19T19:35:31.184Z,99798.25
2023-04-19T19:38:00.604Z,99789.94
2023-04-19T19:40:31.122Z,99792.41
2023-04-19T19:43:00.741Z,99794.88
2023-04-19T19:45:29.403Z,99794.88
2023-04-19T19:47:59.034Z,99786.56
2023-04-19T19:51:05.057Z,99786.34
2023-04-19T19:53:18.844Z,99800.66
2023-04-19T19:55:47.306Z,99791.28
2023-04-19T19:58:32.627Z,99796.69
2023-04-19T20:01:03.924Z,99802.69
2023-04-19T20:03:37.302Z,99805.97
2023-04-19T20:08:43.696Z,99798.69
2023-04-19T20:11:12.298Z,99798.47
2023-04-19T20:13:40.386Z,99794.72
2023-04-19T20:16:10.129Z,99799.06
2023-04-19T20:18:39.229Z,99795.31
2023-04-19T20:21:09.700Z,99801.75
2023-04-19T20:23:42.954Z,99807.16
2023-04-19T20:26:12.179Z,99797.41
2023-04-19T20:28:44.211Z,99796.81
2023-04-19T20:31:18.761Z,99800.34
2023-04-19T20:33:53.100Z,99805.16
2023-04-19T20:36:32.524Z,99801.63
2023-04-19T20:39:10.144Z,99802.69
2023-04-19T20:41:49.204Z,99804.31
2023-04-19T20:44:20.157Z,99798.91
2023-04-19T20:46:52.982Z,99798.09
2023-04-19T20:49:22.615Z,99799.97
2023-04-19T20:51:55.544Z,99793.97
2023-04-19T20:54:39.193Z,99797.75
2023-04-19T20:57:12.936Z,99792.34
2023-04-19T20:59:46.316Z,99794.44
2023-04-19T21:02:15.920Z,99798.22
2023-04-19T21:04:44.030Z,99797.34
2023-04-19T21:07:12.182Z,99796.53
2023-04-19T21:09:42.094Z,99796.53
2023-04-19T21:12:10.075Z,99794.88
2023-04-19T21:14:38.156Z,99789.69
2023-04-19T21:17:06.126Z,99793.25
2023-04-19T21:19:34.238Z,99796.16
2023-04-19T21:22:03.375Z,99797.22
2023-04-19T21:24:31.367Z,99795.81
2023-04-19T21:27:01.514Z,99805.53
2023-04-19T21:29:29.545Z,99802.00
2023-04-19T21:31:57.715Z,99795.81
2023-04-19T21:34:25.886Z,99802.22
2023-04-19T21:36:53.978Z,99797.06
2023-04-19T21:39:22.031Z,99803.28
2023-04-19T21:41:49.990Z,99805.38
2023-04-19T21:44:19.425Z,99805.38
2023-04-19T21:46:48.511Z,99806.44
2023-04-19T21:49:16.807Z,99802.09
2023-04-19T21:51:45.031Z,99796.09
2023-04-19T21:54:20.279Z,99804.19
2023-04-19T21:56:55.090Z,99799.84
2023-04-19T21:59:24.529Z,99798.22
2023-04-19T22:01:53.872Z,99803.00
2023-04-19T22:04:24.532Z,99798.44
2023-04-19T22:06:52.545Z,99798.69
2023-04-19T22:09:20.570Z,99800.53
2023-04-19T22:11:50.278Z,99797.81
2023-04-19T22:14:18.811Z,99802.66
2023-04-19T22:16:49.276Z,99793.13
2023-04-19T22:19:18.238Z,99800.97
2023-04-19T22:21:47.190Z,99802.25
2023-04-19T22:24:15.184Z,99793.34
2023-04-19T22:26:43.315Z,99797.69
2023-04-19T22:29:11.345Z,99799.34
2023-04-19T22:31:39.469Z,99796.84
2023-04-19T22:34:11.366Z,99800.38
2023-04-19T22:36:39.318Z,99796.84
2023-04-19T22:39:07.342Z,99801.44
2023-04-19T22:41:35.419Z,99795.22
2023-04-19T22:44:03.470Z,99803.31
2023-04-19T22:46:32.268Z,99798.97
2023-04-19T22:49:02.080Z,99801.91
2023-04-19T22:51:32.624Z,99805.66
2023-04-19T22:54:02.230Z,99797.78
2023-04-19T22:56:31.533Z,99800.69
2023-04-19T22:59:00.699Z,99797.19
2023-04-19T23:01:30.006Z,99796.97
2023-04-19T23:03:59.490Z,99792.03
2023-04-19T23:06:29.117Z,99796.34
2023-04-19T23:09:00.796Z,99797.41
2023-04-19T23:11:30.398Z,99796.56
2023-04-19T23:14:05.313Z,99790.34
2023-04-19T23:16:34.609Z,99786.84
2023-04-19T23:19:03.736Z,99787.91
2023-04-19T23:21:33.348Z,99783.09
2023-04-19T23:24:04.113Z,99780.03
2023-04-19T23:26:32.050Z,99777.13
2023-04-19T23:29:01.302Z,99780.84
2023-04-19T23:31:30.921Z,99772.75
2023-04-19T23:34:00.447Z,99779.81
2023-04-19T23:36:28.446Z,99780.03
2023-04-19T23:38:57.461Z,99781.91
2023-04-19T23:41:28.272Z,99772.75
2023-04-19T23:43:57.805Z,99764.66
2023-04-19T23:46:25.962Z,99771.94
2023-04-19T23:48:55.667Z,99765.47
2023-04-19T23:51:27.322Z,99764.91
2023-04-19T23:53:56.545Z,99765.13
2023-04-19T23:56:26.133Z,99762.41
2023-04-19T23:58:56.629Z,99757.03
